Pagrindinis puslapis
METAR-TAF:

METAR-TAF

Oro uostai :

Rivas, Nikaragva

platuma: 11-25N, ilguma: 085-50W, Aukštis: 53 m

Dabartinis oras

Ataskaita buvo paskelbta 26 minutes, ne 13:00 UTC
Vėjas 6 kt iš Rytų/Pietryčių
Temperatūra 26°C
Drėgmė 79%
Slėgis 1014 hPa
Matomumas 10 km arba daugiau
Mažai debesys ne aukštis 1500 ft
Išsisklaidę debesys ne aukštis 7000 ft

METAR: MNRS 281300Z 12006KT 9999 FEW015 SCT070 26/22 Q1014

Laikas: 07:26 (13:26 UTC)


TAF: trūkstamas

Orai ataskaitas ir orų prognozės (METAR, TAF).

turimą stotys yra geltonos ir raudonos taškus žemėlapyje.

Perkelti pele per norėdami pamatyti stoties vardą.

Tada spustelėkite, norėdami matyti oro stebėjimo ir prognozės.

Norėdami pakeisti žemėlapį: spustelėkite ant žalios mygtukų su juodo kryžiaus žemyn,; žalią mygtuką su brūkšneliu, jei norite nutolinti; arba žalių rodyklių gretimoms žemėlapius.


METAR-TAF: